Time;durP1;ratioP1;P1;durP2;ratioP2;P2;SDS_P1;SDS_P2;PMS_P1;PMS_P2;Temp;Humidity;BMP_temperature;BMP_pressure;BME280_temperature;BME280_humidity;BME280_pressure;Samples;Min_cycle;Max_cycle;Signal;HPM_P1;HPM_P2
2022/06/14 00:01:34;;;;;;;4.43;3.10;;;12.80;92.80;;;;;;5012900;28;20304;-56
2022/06/14 00:04:00;;;;;;;4.80;2.70;;;12.80;93.30;;;;;;5007059;28;20242;-55
2022/06/14 00:06:29;;;;;;;3.20;2.30;;;12.80;93.10;;;;;;5007543;28;20518;-56
2022/06/14 00:08:55;;;;;;;4.87;2.70;;;12.70;93.20;;;;;;5010460;28;20497;-55
2022/06/14 00:11:40;;;;;;;5.20;3.00;;;12.80;93.50;;;;;;5003005;28;21055;-55
2022/06/14 00:14:09;;;;;;;9.07;3.27;;;12.70;93.20;;;;;;5006160;28;21057;-56
2022/06/14 00:16:35;;;;;;;7.70;3.60;;;12.70;93.60;;;;;;4988711;28;20449;-56
2022/06/14 00:19:04;;;;;;;7.10;3.13;;;12.70;93.60;;;;;;5005668;28;20489;-55
2022/06/14 00:21:30;;;;;;;6.73;3.40;;;12.60;93.40;;;;;;5006412;28;20487;-57
2022/06/14 00:23:56;;;;;;;6.20;3.00;;;12.60;94.00;;;;;;5004943;28;20459;-56
2022/06/14 00:26:22;;;;;;;8.73;4.20;;;12.50;93.90;;;;;;5007152;28;20450;-56
2022/06/14 00:28:48;;;;;;;3.83;2.97;;;12.50;94.30;;;;;;5004300;28;20519;-56
2022/06/14 00:31:19;;;;;;;7.30;3.30;;;12.40;94.30;;;;;;5009459;28;20189;-56
2022/06/14 00:33:44;;;;;;;4.10;2.80;;;12.40;94.70;;;;;;5008090;28;20286;-57
2022/06/14 00:36:24;;;;;;;5.13;3.70;;;12.40;94.80;;;;;;5005930;28;20439;-56
2022/06/14 00:38:50;;;;;;;6.43;3.37;;;12.40;94.90;;;;;;5006439;28;20172;-55
2022/06/14 00:41:39;;;;;;;4.30;3.23;;;12.40;95.20;;;;;;5003453;28;20516;-56
2022/06/14 00:44:10;;;;;;;4.00;2.80;;;12.30;95.30;;;;;;5006277;28;20463;-56
2022/06/14 00:47:03;;;;;;;6.53;3.40;;;12.30;95.40;;;;;;5006487;28;20423;-56
2022/06/14 00:49:34;;;;;;;3.40;3.10;;;12.20;95.20;;;;;;5008037;28;20427;-56
2022/06/14 00:52:26;;;;;;;7.60;3.13;;;12.20;95.60;;;;;;5009695;28;20966;-55
2022/06/14 00:55:04;;;;;;;3.63;3.00;;;12.10;96.10;;;;;;5002511;28;20451;-56
2022/06/14 00:57:40;;;;;;;4.27;3.20;;;12.10;96.20;;;;;;5008020;28;20940;-56
2022/06/14 01:00:13;;;;;;;8.70;3.53;;;12.10;96.50;;;;;;5007723;28;20503;-55
2022/06/14 01:02:45;;;;;;;6.37;3.20;;;12.10;96.60;;;;;;4990407;28;20803;-56
2022/06/14 01:05:16;;;;;;;7.53;2.80;;;12.00;96.50;;;;;;4986991;28;20888;-55
2022/06/14 01:07:46;;;;;;;5.37;3.13;;;12.00;96.60;;;;;;5005932;28;20545;-53
2022/06/14 01:10:15;;;;;;;4.40;3.33;;;12.00;96.70;;;;;;5005385;28;20467;-56
2022/06/14 01:12:45;;;;;;;3.73;2.90;;;12.00;97.30;;;;;;5010036;28;21054;-55
2022/06/14 01:15:19;;;;;;;3.97;2.73;;;12.00;97.10;;;;;;5005346;28;20435;-54
2022/06/14 01:17:48;;;;;;;4.73;3.10;;;11.90;96.90;;;;;;4990165;28;20482;-55
2022/06/14 01:20:17;;;;;;;5.83;3.73;;;11.90;97.10;;;;;;5007846;28;20439;-56
2022/06/14 01:22:43;;;;;;;7.00;3.60;;;11.90;97.50;;;;;;5005255;28;20439;-56
2022/06/14 01:25:10;;;;;;;11.10;3.70;;;11.90;97.60;;;;;;4987998;28;20459;-57
2022/06/14 01:27:38;;;;;;;5.07;3.10;;;11.80;98.00;;;;;;5006227;28;20779;-58
2022/06/14 01:30:14;;;;;;;5.90;3.00;;;11.80;98.30;;;;;;5006543;28;20423;-56
2022/06/14 01:33:02;;;;;;;5.90;3.67;;;11.80;98.30;;;;;;5002382;28;20430;-55
2022/06/14 01:35:34;;;;;;;6.10;3.27;;;11.70;97.80;;;;;;5010319;28;20972;-59
2022/06/14 01:38:03;;;;;;;8.50;3.53;;;11.60;98.10;;;;;;4989229;28;20436;-56
2022/06/14 01:41:09;;;;;;;4.70;3.70;;;11.60;98.30;;;;;;5005552;28;20598;-56
2022/06/14 01:43:59;;;;;;;3.53;3.17;;;11.50;99.10;;;;;;4941568;28;20437;-56
2022/06/14 01:46:32;;;;;;;7.13;3.20;;;11.40;99.00;;;;;;5000752;28;20476;-55
2022/06/14 01:51:50;;;;;;;7.43;2.80;;;11.40;99.20;;;;;;5004605;28;20448;-56
2022/06/14 01:51:59;;;;;;;3.87;2.93;;;11.40;99.30;;;;;;5004207;28;20960;-55
2022/06/14 01:54:34;;;;;;;4.80;3.20;;;11.40;99.60;;;;;;5005188;28;20512;-55
2022/06/14 01:57:36;;;;;;;4.37;3.43;;;11.40;99.90;;;;;;5003458;28;20439;-56
2022/06/14 02:00:10;;;;;;;6.30;3.40;;;11.30;99.90;;;;;;4983148;28;20474;-55
2022/06/14 02:02:38;;;;;;;5.27;2.83;;;11.30;99.90;;;;;;5004222;28;20956;-55
2022/06/14 02:05:18;;;;;;;3.00;2.70;;;11.20;99.90;;;;;;5002547;28;20529;-55
2022/06/14 02:08:06;;;;;;;6.13;3.70;;;11.20;99.90;;;;;;5003511;28;20411;-56
2022/06/14 02:10:39;;;;;;;6.80;3.33;;;11.20;99.90;;;;;;5001492;28;20462;-58
2022/06/14 02:13:18;;;;;;;4.07;3.50;;;11.10;99.90;;;;;;5003166;28;20423;-57
2022/06/14 02:15:55;;;;;;;6.37;3.47;;;11.10;99.90;;;;;;5000122;28;20433;-57
2022/06/14 02:18:27;;;;;;;6.07;3.27;;;11.20;99.90;;;;;;5001144;28;20501;-57
2022/06/14 02:20:55;;;;;;;18.47;11.37;;;11.10;99.90;;;;;;5004945;28;20498;-56
2022/06/14 02:23:25;;;;;;;26.10;14.57;;;11.10;99.90;;;;;;5004839;28;20840;-57
2022/06/14 02:25:57;;;;;;;5.70;3.60;;;11.10;99.90;;;;;;4997877;28;21018;-57
2022/06/14 02:28:35;;;;;;;5.70;3.77;;;11.00;99.90;;;;;;5004846;28;21027;-57
2022/06/14 02:31:13;;;;;;;3.70;3.40;;;11.00;99.90;;;;;;4986056;28;20520;-57
2022/06/14 02:33:47;;;;;;;5.60;3.10;;;10.90;99.90;;;;;;5004865;28;20505;-57
2022/06/14 02:36:33;;;;;;;6.10;3.50;;;10.90;99.90;;;;;;5003706;28;20436;-56
2022/06/14 02:39:13;;;;;;;5.00;3.20;;;10.80;99.90;;;;;;4988888;28;21071;-57
2022/06/14 02:41:59;;;;;;;4.60;3.30;;;10.80;99.90;;;;;;5012026;28;20453;-57
2022/06/14 02:44:57;;;;;;;6.73;3.33;;;10.70;99.90;;;;;;5007600;28;20462;-57
2022/06/14 02:47:33;;;;;;;7.60;4.17;;;10.80;99.90;;;;;;5009314;28;20560;-58
2022/06/14 02:50:35;;;;;;;4.80;3.20;;;10.70;99.90;;;;;;4985896;28;20434;-57
2022/06/14 02:53:14;;;;;;;8.23;3.20;;;10.70;99.90;;;;;;4990125;28;20512;-57
2022/06/14 02:55:48;;;;;;;5.50;3.80;;;10.70;99.90;;;;;;5005921;28;20423;-56
2022/06/14 02:58:39;;;;;;;5.10;3.50;;;10.70;99.90;;;;;;5009352;28;20449;-57
2022/06/14 03:01:07;;;;;;;7.20;3.43;;;10.60;99.90;;;;;;5003770;28;20459;-57
2022/06/14 03:03:44;;;;;;;6.20;3.50;;;10.60;99.90;;;;;;5016157;28;20439;-56
2022/06/14 03:06:26;;;;;;;5.00;3.23;;;10.60;99.90;;;;;;5004927;28;20856;-55
2022/06/14 03:09:15;;;;;;;4.70;3.60;;;10.60;99.90;;;;;;5003318;28;20451;-57
2022/06/14 03:12:01;;;;;;;5.30;3.60;;;10.60;99.90;;;;;;5008882;28;20540;-57
2022/06/14 03:15:03;;;;;;;6.13;4.53;;;10.50;99.90;;;;;;4976452;28;20778;-57
2022/06/14 03:17:44;;;;;;;10.77;3.87;;;10.50;99.90;;;;;;5015562;28;20434;-58
2022/06/14 03:20:46;;;;;;;5.10;2.90;;;10.50;99.90;;;;;;5012725;28;20741;-56
2022/06/14 03:23:24;;;;;;;4.73;3.40;;;10.50;99.90;;;;;;5009861;28;20496;-57
2022/06/14 03:25:59;;;;;;;7.73;4.10;;;10.40;99.90;;;;;;5002836;28;21506;-57
2022/06/14 03:28:34;;;;;;;7.37;3.97;;;10.50;99.90;;;;;;5016593;28;20827;-57
2022/06/14 03:31:14;;;;;;;4.93;3.57;;;10.40;99.90;;;;;;5017402;28;20454;-56
2022/06/14 03:33:39;;;;;;;7.63;3.57;;;10.40;99.90;;;;;;5004558;28;20541;-56
2022/06/14 03:36:07;;;;;;;6.37;4.00;;;10.30;99.90;;;;;;5013900;28;20948;-57
2022/06/14 03:39:01;;;;;;;7.23;3.43;;;10.30;99.90;;;;;;5007584;28;20235;-57
2022/06/14 03:41:32;;;;;;;5.40;3.80;;;10.30;99.90;;;;;;5005461;28;20455;-56
2022/06/14 03:44:01;;;;;;;8.73;3.60;;;10.30;99.90;;;;;;5006674;28;20435;-56
2022/06/14 03:46:31;;;;;;;5.17;3.77;;;10.30;99.90;;;;;;4986736;28;20838;-57
2022/06/14 03:49:06;;;;;;;8.10;3.53;;;10.20;99.90;;;;;;5017065;28;20443;-56
2022/06/14 03:51:51;;;;;;;5.93;3.97;;;10.20;99.90;;;;;;4988589;28;20453;-58
2022/06/14 03:54:32;;;;;;;5.77;3.93;;;10.20;99.90;;;;;;5003583;28;20435;-55
2022/06/14 03:57:32;;;;;;;4.53;3.27;;;10.20;99.90;;;;;;4989746;28;20446;-57
2022/06/14 04:00:01;;;;;;;4.23;3.60;;;10.20;99.90;;;;;;5010223;28;20430;-56
2022/06/14 04:02:54;;;;;;;5.60;3.50;;;10.20;99.90;;;;;;5010749;28;20517;-56
2022/06/14 04:05:37;;;;;;;5.40;3.87;;;10.20;99.90;;;;;;5016707;28;20473;-58
2022/06/14 04:08:03;;;;;;;4.63;3.50;;;10.20;99.90;;;;;;5006037;28;20938;-57
2022/06/14 04:10:41;;;;;;;9.73;4.07;;;10.20;99.90;;;;;;4992112;28;20527;-56
2022/06/14 04:13:35;;;;;;;7.80;5.00;;;10.30;99.90;;;;;;5009993;28;20290;-57
2022/06/14 04:16:34;;;;;;;6.93;4.23;;;10.30;99.90;;;;;;5004308;28;20458;-55
2022/06/14 04:19:10;;;;;;;4.57;3.47;;;10.30;99.90;;;;;;5014042;28;20441;-56
2022/06/14 04:21:55;;;;;;;5.63;3.73;;;10.30;99.90;;;;;;5014023;28;20578;-56
2022/06/14 04:24:27;;;;;;;5.77;3.67;;;10.30;99.90;;;;;;5007166;28;20608;-55
2022/06/14 04:27:32;;;;;;;5.70;4.80;;;10.40;99.90;;;;;;5011529;28;21045;-54
2022/06/14 04:30:12;;;;;;;6.90;4.00;;;10.40;99.90;;;;;;5012245;28;20432;-58
2022/06/14 04:33:19;;;;;;;8.37;3.83;;;10.50;99.90;;;;;;4999457;28;20431;-56
2022/06/14 04:36:01;;;;;;;5.77;4.00;;;10.50;99.90;;;;;;5000725;28;20436;-56
2022/06/14 04:38:55;;;;;;;7.47;4.17;;;10.60;99.90;;;;;;5004829;28;20431;-56
2022/06/14 04:41:38;;;;;;;8.17;4.33;;;10.70;99.90;;;;;;4998867;28;20466;-58
2022/06/14 04:44:16;;;;;;;5.63;3.87;;;10.70;99.90;;;;;;5006057;28;20446;-56
2022/06/14 04:47:22;;;;;;;11.20;4.40;;;10.80;99.90;;;;;;5006079;28;20426;-57
2022/06/14 04:49:50;;;;;;;4.70;3.97;;;10.90;99.90;;;;;;5003710;28;20511;-58
2022/06/14 04:52:20;;;;;;;5.37;4.50;;;10.90;99.90;;;;;;5001306;28;20971;-57
2022/06/14 04:54:55;;;;;;;11.23;6.33;;;11.00;99.90;;;;;;5002343;28;20461;-58
2022/06/14 04:57:26;;;;;;;15.17;4.87;;;11.00;99.90;;;;;;5004385;28;20439;-58
2022/06/14 05:00:03;;;;;;;4.73;3.70;;;11.10;99.90;;;;;;5003311;28;21138;-57
2022/06/14 05:02:47;;;;;;;4.50;3.60;;;11.10;99.90;;;;;;5009043;28;20490;-57
2022/06/14 05:05:21;;;;;;;5.80;3.50;;;11.20;99.90;;;;;;5001384;28;20455;-56
2022/06/14 05:07:53;;;;;;;5.53;3.63;;;11.30;99.90;;;;;;4990649;28;20458;-57
2022/06/14 05:10:40;;;;;;;13.17;4.20;;;11.40;99.90;;;;;;4984960;28;20427;-56
2022/06/14 05:13:12;;;;;;;7.83;4.20;;;11.50;99.90;;;;;;5005684;28;20937;-57
2022/06/14 05:15:53;;;;;;;8.67;4.17;;;11.50;99.90;;;;;;4989122;28;20431;-56
2022/06/14 05:18:34;;;;;;;8.70;4.43;;;11.60;99.90;;;;;;5030720;22;20437;-60
2022/06/14 05:21:20;;;;;;;6.93;4.00;;;11.60;99.90;;;;;;4989908;28;20466;-62
2022/06/14 05:23:52;;;;;;;10.50;4.30;;;11.70;99.90;;;;;;4982228;28;20431;-60
2022/06/14 05:26:50;;;;;;;15.90;4.30;;;11.80;99.90;;;;;;5014540;28;20435;-60
2022/06/14 05:29:36;;;;;;;10.73;5.20;;;11.90;99.90;;;;;;4965635;28;21076;-61
2022/06/14 05:32:08;;;;;;;7.23;3.97;;;11.90;99.90;;;;;;4993323;28;20436;-61
2022/06/14 05:34:40;;;;;;;10.10;3.97;;;12.00;99.90;;;;;;4995466;28;20452;-62
2022/06/14 05:37:27;;;;;;;10.40;4.20;;;12.10;99.90;;;;;;4994925;28;20439;-62
2022/06/14 05:40:04;;;;;;;5.30;4.13;;;12.20;99.90;;;;;;4976231;28;20462;-61
2022/06/14 05:42:36;;;;;;;4.70;3.70;;;12.30;99.90;;;;;;4991599;28;20519;-62
2022/06/14 05:45:03;;;;;;;6.40;4.37;;;12.40;99.90;;;;;;4993024;28;20490;-62
2022/06/14 05:47:36;;;;;;;7.57;4.33;;;12.50;99.90;;;;;;4996421;28;20466;-61
2022/06/14 05:50:07;;;;;;;7.03;3.90;;;12.50;99.80;;;;;;4998159;28;20450;-62
2022/06/14 05:52:35;;;;;;;5.80;4.00;;;12.60;99.90;;;;;;4990427;28;20512;-61
2022/06/14 05:55:21;;;;;;;6.37;4.60;;;12.60;99.80;;;;;;4993123;28;20610;-61
2022/06/14 05:57:56;;;;;;;6.10;4.70;;;12.70;99.70;;;;;;4998891;28;20419;-61
2022/06/14 06:00:30;;;;;;;12.10;5.30;;;12.80;99.90;;;;;;4995513;28;21338;-60
2022/06/14 06:03:05;;;;;;;7.90;4.23;;;12.90;99.90;;;;;;4988292;28;20446;-62
2022/06/14 06:05:48;;;;;;;12.00;4.30;;;13.00;99.90;;;;;;4987079;28;20531;-61
2022/06/14 06:08:30;;;;;;;10.77;4.50;;;13.20;99.90;;;;;;4989108;28;20523;-61
2022/06/14 06:11:03;;;;;;;8.03;5.40;;;13.40;99.90;;;;;;4992674;28;20447;-61
2022/06/14 06:13:49;;;;;;;8.20;4.87;;;13.50;99.00;;;;;;4988612;28;20428;-61
2022/06/14 06:19:35;;;;;;;16.90;5.80;;;13.80;98.40;;;;;;4985397;28;21011;-62
2022/06/14 06:22:16;;;;;;;10.50;5.50;;;14.00;97.70;;;;;;4989161;28;20470;-62
2022/06/14 06:24:51;;;;;;;31.57;6.37;;;14.10;97.80;;;;;;4998904;28;20492;-61
2022/06/14 06:27:21;;;;;;;12.50;6.30;;;14.30;96.60;;;;;;4995217;28;20428;-62
2022/06/14 06:29:55;;;;;;;12.63;5.33;;;14.40;95.80;;;;;;4996428;28;20432;-62
2022/06/14 06:32:22;;;;;;;7.90;4.93;;;14.60;96.30;;;;;;4995304;28;20434;-61
2022/06/14 06:34:50;;;;;;;10.80;5.33;;;14.70;94.40;;;;;;4993080;28;20430;-61
2022/06/14 06:37:24;;;;;;;7.23;5.30;;;14.80;93.00;;;;;;5001970;28;20470;-60
2022/06/14 06:40:03;;;;;;;11.57;5.20;;;14.80;93.60;;;;;;4981744;28;20438;-62
2022/06/14 06:42:44;;;;;;;7.33;5.10;;;15.00;92.60;;;;;;4993406;28;20451;-63
2022/06/14 06:45:14;;;;;;;9.20;4.90;;;15.10;91.10;;;;;;4997065;28;20452;-62
2022/06/14 06:47:58;;;;;;;10.17;5.10;;;15.20;90.30;;;;;;4994363;28;20802;-61
2022/06/14 06:50:28;;;;;;;8.80;4.23;;;15.30;88.90;;;;;;4992664;28;20466;-61
2022/06/14 06:53:15;;;;;;;9.33;4.97;;;15.40;88.80;;;;;;4996655;28;20496;-62
2022/06/14 06:55:52;;;;;;;7.60;3.67;;;15.50;87.70;;;;;;4996350;28;20486;-62
2022/06/14 06:58:21;;;;;;;9.93;4.07;;;15.60;86.00;;;;;;4993423;28;20490;-62
2022/06/14 07:00:48;;;;;;;6.57;3.73;;;15.80;85.10;;;;;;4995768;28;20537;-62
2022/06/14 07:03:24;;;;;;;12.90;4.70;;;16.00;83.20;;;;;;4986509;28;20582;-61
2022/06/14 07:05:58;;;;;;;10.53;4.43;;;16.10;79.60;;;;;;4990162;28;20495;-60
2022/06/14 07:08:34;;;;;;;9.93;4.07;;;16.40;77.80;;;;;;4995183;28;21084;-60
2022/06/14 07:11:01;;;;;;;9.53;3.90;;;16.50;76.40;;;;;;4996543;28;20439;-60
2022/06/14 07:13:44;;;;;;;5.87;3.60;;;16.70;74.10;;;;;;4977599;28;20439;-61
2022/06/14 07:16:24;;;;;;;6.07;3.90;;;16.90;72.90;;;;;;4995616;28;20443;-60
2022/06/14 07:19:15;;;;;;;10.87;3.77;;;17.00;71.40;;;;;;4979445;28;20476;-60
2022/06/14 07:21:47;;;;;;;11.27;4.40;;;17.20;69.80;;;;;;4971991;28;20436;-61
2022/06/14 07:24:18;;;;;;;10.90;4.40;;;17.30;67.70;;;;;;4980555;28;21156;-60
2022/06/14 07:26:46;;;;;;;9.13;4.07;;;17.50;64.30;;;;;;4979255;28;20555;-61
2022/06/14 07:29:12;;;;;;;11.03;3.93;;;17.60;62.80;;;;;;4964008;28;20552;-61
2022/06/14 07:32:05;;;;;;;13.63;4.03;;;17.70;63.20;;;;;;4994476;28;20509;-61
2022/06/14 07:34:33;;;;;;;7.50;3.40;;;17.80;62.30;;;;;;4978337;28;20682;-62
2022/06/14 07:37:12;;;;;;;5.20;3.07;;;17.90;61.80;;;;;;4978452;28;20437;-61
2022/06/14 07:39:45;;;;;;;8.90;3.43;;;18.00;62.00;;;;;;4973416;28;21042;-61
2022/06/14 07:42:26;;;;;;;11.50;3.93;;;18.10;60.90;;;;;;4977004;28;20447;-60
2022/06/14 07:45:07;;;;;;;6.60;3.93;;;18.30;60.50;;;;;;4975417;28;20460;-61
2022/06/14 07:47:48;;;;;;;11.30;4.70;;;18.40;60.20;;;;;;4981847;28;20474;-61
2022/06/14 07:50:34;;;;;;;3.60;2.93;;;18.40;60.60;;;;;;4977855;28;20484;-60
2022/06/14 07:53:15;;;;;;;7.03;3.53;;;18.60;60.20;;;;;;4978543;28;20467;-61
2022/06/14 07:55:50;;;;;;;9.30;3.50;;;18.70;59.60;;;;;;4979005;28;20452;-60
2022/06/14 07:58:24;;;;;;;9.17;3.47;;;18.80;59.10;;;;;;4977878;28;20443;-60
2022/06/14 08:01:09;;;;;;;10.37;3.40;;;18.90;57.60;;;;;;4981658;28;20440;-60
2022/06/14 08:03:59;;;;;;;6.63;3.60;;;19.00;57.50;;;;;;4976152;28;20449;-61
2022/06/14 08:07:00;;;;;;;7.97;3.30;;;19.10;57.30;;;;;;4986335;28;20424;-61
2022/06/14 08:09:32;;;;;;;4.37;3.00;;;19.20;56.00;;;;;;4972847;28;20551;-60
2022/06/14 08:12:00;;;;;;;5.07;2.90;;;19.30;56.00;;;;;;4986245;28;20437;-61
2022/06/14 08:14:47;;;;;;;6.50;3.17;;;19.30;55.90;;;;;;4983276;28;20432;-61
2022/06/14 08:17:22;;;;;;;8.23;3.70;;;19.40;55.20;;;;;;4973079;28;20463;-61
2022/06/14 08:20:29;;;;;;;8.57;3.30;;;19.50;53.50;;;;;;4981709;28;20470;-61
2022/06/14 08:23:03;;;;;;;24.07;3.67;;;19.60;54.10;;;;;;4980284;28;20526;-60
2022/06/14 08:25:36;;;;;;;14.23;3.43;;;19.70;53.60;;;;;;4987970;28;20467;-62
2022/06/14 08:28:17;;;;;;;9.10;3.20;;;19.80;53.60;;;;;;4982781;28;21111;-61
2022/06/14 08:30:51;;;;;;;7.60;3.70;;;19.80;53.00;;;;;;4987885;28;21036;-61
2022/06/14 08:33:33;;;;;;;5.63;2.67;;;19.90;53.20;;;;;;4975766;28;20526;-61
2022/06/14 08:36:06;;;;;;;3.87;3.00;;;19.90;53.10;;;;;;4973723;28;20493;-62
2022/06/14 08:38:50;;;;;;;6.30;3.30;;;20.00;52.40;;;;;;4984340;28;21078;-61
2022/06/14 08:41:52;;;;;;;12.53;3.63;;;20.00;52.20;;;;;;4985063;28;21043;-61
2022/06/14 08:44:23;;;;;;;5.90;3.53;;;20.10;52.10;;;;;;4983083;28;20455;-61
2022/06/14 08:47:04;;;;;;;31.77;13.37;;;20.20;52.70;;;;;;4968138;28;20797;-61
2022/06/14 08:49:51;;;;;;;9.60;5.13;;;20.20;51.50;;;;;;4967193;28;20579;-61
2022/06/14 08:52:45;;;;;;;6.87;3.10;;;20.20;50.30;;;;;;4985050;28;20451;-62
2022/06/14 08:55:11;;;;;;;9.73;3.10;;;20.30;51.30;;;;;;4966016;28;20467;-61
2022/06/14 08:58:01;;;;;;;6.40;3.47;;;20.40;50.30;;;;;;4980180;28;20432;-61
2022/06/14 09:00:30;;;;;;;4.70;2.90;;;20.40;50.00;;;;;;4987562;28;20212;-61
2022/06/14 09:03:05;;;;;;;6.20;2.50;;;20.50;49.80;;;;;;4991917;28;20433;-61
2022/06/14 09:05:33;;;;;;;3.00;2.27;;;20.60;49.40;;;;;;4988230;28;20554;-61
2022/06/14 09:08:18;;;;;;;4.60;2.70;;;20.80;48.60;;;;;;4981880;28;21461;-61
2022/06/14 09:11:03;;;;;;;11.93;3.57;;;20.90;48.80;;;;;;4982985;28;20444;-61
2022/06/14 09:14:02;;;;;;;4.10;2.40;;;21.00;50.00;;;;;;4984025;28;20482;-61
2022/06/14 09:16:54;;;;;;;4.00;2.80;;;21.10;49.10;;;;;;4983527;28;20433;-60
2022/06/14 09:19:53;;;;;;;2.93;2.40;;;21.30;48.90;;;;;;4981975;28;20542;-56
2022/06/14 09:22:21;;;;;;;7.67;2.70;;;21.40;46.30;;;;;;4994425;28;20916;-55
2022/06/14 09:24:58;;;;;;;5.33;2.93;;;21.50;47.30;;;;;;4995372;28;20455;-57
2022/06/14 09:27:53;;;;;;;7.83;3.03;;;21.60;47.70;;;;;;4990186;28;20929;-60
2022/06/14 09:30:34;;;;;;;5.33;2.80;;;21.60;48.30;;;;;;4977083;28;20861;-61
2022/06/14 09:33:26;;;;;;;5.30;2.67;;;21.80;49.30;;;;;;4983458;28;20428;-61
2022/06/14 09:36:03;;;;;;;4.47;2.20;;;21.90;48.80;;;;;;4975731;28;20448;-61
2022/06/14 09:38:58;;;;;;;4.50;2.70;;;22.00;48.40;;;;;;4975337;28;20459;-61
2022/06/14 09:42:08;;;;;;;2.93;2.40;;;22.10;48.10;;;;;;4979075;28;20474;-60
2022/06/14 09:44:36;;;;;;;5.87;2.70;;;22.20;46.70;;;;;;4991144;28;20979;-60
2022/06/14 09:47:29;;;;;;;4.10;1.87;;;22.30;46.10;;;;;;4980764;28;20435;-61
2022/06/14 09:50:30;;;;;;;6.17;2.30;;;22.40;44.30;;;;;;4980869;28;20460;-61
2022/06/14 09:53:25;;;;;;;3.80;2.70;;;22.50;42.90;;;;;;4988508;28;20905;-61
2022/06/14 09:56:11;;;;;;;6.90;2.33;;;22.60;43.70;;;;;;4979074;28;20440;-63
2022/06/14 09:58:39;;;;;;;8.43;2.30;;;22.60;42.50;;;;;;4980242;28;20992;-61
2022/06/14 10:01:28;;;;;;;5.93;2.70;;;22.70;43.20;;;;;;4968266;28;20703;-60
2022/06/14 10:03:53;;;;;;;7.33;2.53;;;22.80;42.40;;;;;;4987689;28;21134;-61
2022/06/14 10:06:31;;;;;;;8.60;2.53;;;22.90;42.70;;;;;;4978115;28;20636;-60
2022/06/14 10:09:10;;;;;;;3.10;2.30;;;23.00;42.50;;;;;;4979279;28;20267;-58
2022/06/14 10:11:50;;;;;;;4.87;2.40;;;23.00;40.60;;;;;;4980947;28;20432;-59
2022/06/14 10:14:19;;;;;;;4.27;2.20;;;23.00;41.10;;;;;;4986040;28;20441;-59
2022/06/14 10:17:17;;;;;;;5.83;2.63;;;23.10;42.50;;;;;;4980828;28;20432;-58
2022/06/14 10:20:24;;;;;;;3.73;2.40;;;23.20;43.50;;;;;;4981991;28;21549;-58
2022/06/14 10:23:17;;;;;;;4.10;3.00;;;23.50;44.70;;;;;;4983959;28;20436;-59
2022/06/14 10:29:09;;;;;;;4.33;2.20;;;23.70;40.30;;;;;;4976018;28;20509;-61
2022/06/14 10:32:08;;;;;;;5.50;2.60;;;23.80;39.50;;;;;;4977842;28;20623;-60
2022/06/14 10:34:40;;;;;;;5.33;2.43;;;23.90;38.60;;;;;;4980677;28;20473;-60
2022/06/14 10:37:06;;;;;;;5.77;2.57;;;23.90;39.90;;;;;;4992048;28;20447;-63
2022/06/14 10:39:58;;;;;;;3.90;2.07;;;24.00;38.70;;;;;;4973321;28;20456;-61
2022/06/14 10:42:39;;;;;;;4.87;2.17;;;24.10;39.70;;;;;;4986667;28;20321;-61
2022/06/14 10:45:18;;;;;;;4.50;2.10;;;24.30;39.00;;;;;;4990348;28;21193;-62
2022/06/14 10:47:51;;;;;;;5.83;2.57;;;24.50;38.10;;;;;;4980262;28;20506;-61
2022/06/14 10:51:00;;;;;;;20.87;8.20;;;24.60;39.50;;;;;;4980284;28;20951;-62
2022/06/14 10:53:35;;;;;;;7.50;3.23;;;24.70;38.50;;;;;;4947601;28;20484;-62
2022/06/14 10:56:07;;;;;;;3.90;2.13;;;24.80;37.30;;;;;;4978744;28;20443;-62
2022/06/14 10:58:49;;;;;;;11.47;3.60;;;24.90;36.30;;;;;;4980408;28;20452;-59
2022/06/14 11:01:17;;;;;;;4.57;2.13;;;25.00;35.50;;;;;;4978234;28;20467;-61
2022/06/14 11:04:05;;;;;;;3.43;2.43;;;25.10;35.50;;;;;;4987535;28;20420;-59
2022/06/14 11:07:09;;;;;;;2.87;1.90;;;25.10;35.50;;;;;;4983544;28;20443;-59
2022/06/14 11:09:46;;;;;;;3.17;2.13;;;25.20;34.10;;;;;;4980636;28;20447;-60
2022/06/14 11:12:36;;;;;;;4.30;3.03;;;25.30;33.60;;;;;;4979141;28;20530;-57
2022/06/14 11:15:24;;;;;;;8.97;2.60;;;25.40;34.60;;;;;;4974170;28;20435;-57
2022/06/14 11:18:08;;;;;;;2.87;2.53;;;25.60;38.30;;;;;;4977814;28;20434;-56
2022/06/14 11:20:39;;;;;;;3.00;1.83;;;25.70;39.10;;;;;;4982342;28;20427;-57
2022/06/14 11:23:31;;;;;;;5.27;1.93;;;25.90;38.80;;;;;;4988296;28;20924;-57
2022/06/14 11:26:09;;;;;;;3.40;2.40;;;25.90;39.20;;;;;;4984268;28;20476;-57
2022/06/14 11:28:55;;;;;;;5.57;2.33;;;25.90;38.50;;;;;;4980334;28;20438;-58
2022/06/14 11:31:32;;;;;;;3.50;2.27;;;26.00;38.90;;;;;;4986243;28;20423;-56
2022/06/14 11:34:26;;;;;;;4.63;2.13;;;26.10;37.70;;;;;;4984202;28;20453;-56
2022/06/14 11:37:27;;;;;;;6.50;2.20;;;26.10;37.40;;;;;;4995658;28;20429;-60
2022/06/14 11:39:55;;;;;;;5.83;2.37;;;26.10;38.40;;;;;;4981809;28;20447;-57
2022/06/14 11:42:28;;;;;;;4.80;2.30;;;26.20;38.40;;;;;;4990398;28;20420;-56
2022/06/14 11:45:18;;;;;;;3.00;2.00;;;26.30;39.60;;;;;;4970247;28;20555;-55
2022/06/14 11:48:03;;;;;;;3.97;2.00;;;26.50;39.80;;;;;;4982159;28;20443;-56
2022/06/14 11:50:50;;;;;;;4.03;2.10;;;26.60;38.10;;;;;;4983279;28;20444;-59
2022/06/14 11:53:46;;;;;;;2.53;2.10;;;26.70;36.20;;;;;;4988444;28;20517;-61
2022/06/14 11:56:38;;;;;;;2.97;2.20;;;26.70;35.60;;;;;;4981600;28;20435;-62
2022/06/14 11:59:15;;;;;;;6.70;2.10;;;26.80;35.10;;;;;;4990170;28;21041;-62
2022/06/14 12:01:55;;;;;;;3.50;1.67;;;26.80;35.30;;;;;;4976896;28;20510;-61
2022/06/14 12:04:55;;;;;;;5.33;2.50;;;27.00;36.90;;;;;;4981097;28;20508;-61
2022/06/14 12:07:36;;;;;;;2.40;1.87;;;27.10;37.80;;;;;;4985634;28;20439;-61
2022/06/14 12:10:17;;;;;;;5.23;2.30;;;27.20;36.10;;;;;;4984661;28;20478;-60
2022/06/14 12:13:11;;;;;;;3.10;2.30;;;27.30;38.60;;;;;;4985075;28;20275;-60
2022/06/14 12:15:58;;;;;;;5.43;2.37;;;27.40;37.10;;;;;;4989185;28;20253;-60
2022/06/14 12:18:27;;;;;;;4.90;2.47;;;27.60;37.50;;;;;;4994987;28;20224;-60
2022/06/14 12:21:05;;;;;;;3.10;1.90;;;27.70;37.80;;;;;;4987543;28;20181;-60
2022/06/14 12:23:37;;;;;;;3.63;2.37;;;27.80;36.80;;;;;;4973542;28;20179;-60
2022/06/14 12:26:35;;;;;;;3.67;2.07;;;27.90;37.80;;;;;;4994001;28;20202;-60
2022/06/14 12:29:05;;;;;;;3.87;2.10;;;27.90;37.40;;;;;;4961486;28;20293;-61
2022/06/14 12:31:39;;;;;;;3.27;2.13;;;28.00;37.20;;;;;;4985184;28;20265;-60
2022/06/14 12:34:22;;;;;;;6.13;2.40;;;28.00;34.00;;;;;;4984703;28;20235;-60
2022/06/14 12:37:09;;;;;;;3.60;1.80;;;28.10;33.90;;;;;;4987728;28;20169;-60
2022/06/14 12:39:58;;;;;;;5.03;2.50;;;28.10;33.90;;;;;;4989187;28;20287;-60
2022/06/14 12:42:41;;;;;;;5.70;1.80;;;28.20;34.10;;;;;;4973130;28;20235;-61
2022/06/14 12:45:17;;;;;;;5.20;2.70;;;28.40;34.10;;;;;;4984300;28;20279;-60
2022/06/14 12:47:58;;;;;;;3.57;1.70;;;28.50;34.70;;;;;;4989458;28;20660;-60
2022/06/14 12:50:29;;;;;;;4.50;2.47;;;28.60;35.40;;;;;;4982047;28;20215;-61
2022/06/14 12:53:02;;;;;;;3.37;1.83;;;28.60;36.00;;;;;;4978887;28;20200;-63
2022/06/14 12:55:36;;;;;;;3.60;2.07;;;28.70;35.40;;;;;;4964971;28;20195;-62
2022/06/14 12:58:07;;;;;;;2.30;1.90;;;28.90;34.80;;;;;;4987206;28;20256;-63
2022/06/14 13:00:41;;;;;;;3.13;2.50;;;29.00;34.70;;;;;;4981414;28;20271;-60
2022/06/14 13:03:16;;;;;;;3.57;1.90;;;28.90;33.10;;;;;;4984084;28;20173;-60
2022/06/14 13:05:45;;;;;;;5.30;2.17;;;29.00;32.60;;;;;;4985373;28;20199;-60
2022/06/14 13:08:30;;;;;;;4.00;2.00;;;29.00;33.00;;;;;;4988055;28;20182;-61
2022/06/14 13:11:13;;;;;;;4.00;2.00;;;29.10;32.10;;;;;;4984289;28;20564;-61
2022/06/14 13:13:54;;;;;;;3.85;1.85;;;29.20;32.20;;;;;;4982314;28;20177;-61
2022/06/14 13:16:42;;;;;;;2.42;2.05;;;29.30;32.80;;;;;;4982180;28;20206;-61
2022/06/14 13:19:11;;;;;;;5.25;1.90;;;29.40;33.50;;;;;;4984508;28;20638;-61
2022/06/14 13:22:03;;;;;;;3.97;2.00;;;29.50;33.60;;;;;;4991209;28;20208;-61
2022/06/14 13:25:06;;;;;;;6.10;1.55;;;29.60;33.70;;;;;;4975940;28;20208;-62
2022/06/14 13:27:48;;;;;;;5.32;2.22;;;29.70;31.80;;;;;;4982566;28;20173;-68
2022/06/14 13:30:36;;;;;;;4.32;2.08;;;29.70;31.30;;;;;;4982465;28;20200;-59
2022/06/14 13:33:19;;;;;;;5.07;2.13;;;29.80;32.60;;;;;;4985353;28;20264;-62
2022/06/14 13:36:03;;;;;;;8.40;2.50;;;29.90;32.80;;;;;;4973699;28;21214;-60
2022/06/14 13:38:28;;;;;;;2.78;1.75;;;30.00;31.70;;;;;;4978604;28;20205;-61
2022/06/14 13:41:13;;;;;;;2.10;1.90;;;30.00;30.00;;;;;;4977000;28;20669;-61
2022/06/14 13:43:53;;;;;;;1.88;1.50;;;29.90;30.50;;;;;;4981966;28;20204;-60
2022/06/14 13:46:31;;;;;;;2.58;1.75;;;30.00;31.80;;;;;;4976492;28;20283;-62
2022/06/14 13:49:27;;;;;;;2.08;1.90;;;30.10;31.10;;;;;;4976509;28;20205;-61
2022/06/14 13:52:02;;;;;;;5.78;2.13;;;30.10;30.00;;;;;;4977494;28;20190;-62
2022/06/14 13:54:51;;;;;;;5.53;2.05;;;30.20;31.80;;;;;;4981752;28;20180;-63
2022/06/14 13:57:36;;;;;;;1.60;1.48;;;30.30;30.70;;;;;;4979955;28;20173;-62